sensor_id;sensor_type;location;lat;lon;timestamp;P1;durP1;ratioP1;P2;durP2;ratioP2
46116;SDS011;32591;48.102;11.772;2022-11-11T00:00:49;5.57;;;3.22;;
46116;SDS011;32591;48.102;11.772;2022-11-11T00:03:16;5.78;;;3.33;;
46116;SDS011;32591;48.102;11.772;2022-11-11T00:05:43;8.95;;;3.63;;
46116;SDS011;32591;48.102;11.772;2022-11-11T00:10:38;6.85;;;3.38;;
46116;SDS011;32591;48.102;11.772;2022-11-11T00:13:06;6.50;;;3.40;;
46116;SDS011;32591;48.102;11.772;2022-11-11T00:15:35;6.10;;;3.78;;
46116;SDS011;32591;48.102;11.772;2022-11-11T00:18:04;5.30;;;3.47;;
46116;SDS011;32591;48.102;11.772;2022-11-11T00:20:48;5.45;;;3.10;;
46116;SDS011;32591;48.102;11.772;2022-11-11T00:23:33;5.05;;;3.08;;
46116;SDS011;32591;48.102;11.772;2022-11-11T00:26:15;4.30;;;3.08;;
46116;SDS011;32591;48.102;11.772;2022-11-11T00:28:42;4.20;;;2.70;;
46116;SDS011;32591;48.102;11.772;2022-11-11T00:31:10;5.68;;;3.40;;
46116;SDS011;32591;48.102;11.772;2022-11-11T00:33:39;5.22;;;2.80;;
46116;SDS011;32591;48.102;11.772;2022-11-11T00:36:06;4.80;;;2.95;;
46116;SDS011;32591;48.102;11.772;2022-11-11T00:38:33;5.65;;;3.45;;
46116;SDS011;32591;48.102;11.772;2022-11-11T00:41:14;6.07;;;3.47;;
46116;SDS011;32591;48.102;11.772;2022-11-11T00:43:44;5.05;;;3.10;;
46116;SDS011;32591;48.102;11.772;2022-11-11T00:46:13;4.80;;;3.05;;
46116;SDS011;32591;48.102;11.772;2022-11-11T00:48:59;5.82;;;3.50;;
46116;SDS011;32591;48.102;11.772;2022-11-11T00:51:44;4.90;;;3.08;;
46116;SDS011;32591;48.102;11.772;2022-11-11T00:54:11;5.00;;;2.97;;
46116;SDS011;32591;48.102;11.772;2022-11-11T00:56:41;4.13;;;2.78;;
46116;SDS011;32591;48.102;11.772;2022-11-11T00:59:08;5.75;;;2.92;;
46116;SDS011;32591;48.102;11.772;2022-11-11T01:01:35;4.80;;;2.63;;
46116;SDS011;32591;48.102;11.772;2022-11-11T01:04:03;4.90;;;3.08;;
46116;SDS011;32591;48.102;11.772;2022-11-11T01:06:30;4.45;;;2.83;;
46116;SDS011;32591;48.102;11.772;2022-11-11T01:08:57;3.75;;;2.55;;
46116;SDS011;32591;48.102;11.772;2022-11-11T01:11:30;3.80;;;2.65;;
46116;SDS011;32591;48.102;11.772;2022-11-11T01:13:58;3.60;;;2.20;;
46116;SDS011;32591;48.102;11.772;2022-11-11T01:16:25;3.03;;;2.22;;
46116;SDS011;32591;48.102;11.772;2022-11-11T01:18:53;3.38;;;2.47;;
46116;SDS011;32591;48.102;11.772;2022-11-11T01:21:21;5.40;;;2.80;;
46116;SDS011;32591;48.102;11.772;2022-11-11T01:23:51;3.75;;;2.30;;
46116;SDS011;32591;48.102;11.772;2022-11-11T01:26:19;4.43;;;2.42;;
46116;SDS011;32591;48.102;11.772;2022-11-11T01:28:48;3.70;;;2.80;;
46116;SDS011;32591;48.102;11.772;2022-11-11T01:31:18;3.67;;;2.40;;
46116;SDS011;32591;48.102;11.772;2022-11-11T01:33:47;4.05;;;2.83;;
46116;SDS011;32591;48.102;11.772;2022-11-11T01:36:16;4.22;;;2.30;;
46116;SDS011;32591;48.102;11.772;2022-11-11T01:38:47;4.38;;;2.50;;
46116;SDS011;32591;48.102;11.772;2022-11-11T01:41:16;2.80;;;2.20;;
46116;SDS011;32591;48.102;11.772;2022-11-11T01:43:58;4.40;;;3.03;;
46116;SDS011;32591;48.102;11.772;2022-11-11T01:46:28;4.47;;;2.80;;
46116;SDS011;32591;48.102;11.772;2022-11-11T01:49:01;4.22;;;2.33;;
46116;SDS011;32591;48.102;11.772;2022-11-11T01:51:44;5.78;;;2.45;;
46116;SDS011;32591;48.102;11.772;2022-11-11T01:54:21;2.80;;;1.85;;
46116;SDS011;32591;48.102;11.772;2022-11-11T01:56:54;4.45;;;2.45;;
46116;SDS011;32591;48.102;11.772;2022-11-11T01:59:25;3.85;;;2.53;;
46116;SDS011;32591;48.102;11.772;2022-11-11T02:01:54;7.32;;;2.80;;
46116;SDS011;32591;48.102;11.772;2022-11-11T02:04:21;3.20;;;2.30;;
46116;SDS011;32591;48.102;11.772;2022-11-11T02:07:06;5.57;;;3.22;;
46116;SDS011;32591;48.102;11.772;2022-11-11T02:09:35;3.95;;;2.67;;
46116;SDS011;32591;48.102;11.772;2022-11-11T02:12:05;3.70;;;2.20;;
46116;SDS011;32591;48.102;11.772;2022-11-11T02:14:53;3.38;;;2.42;;
46116;SDS011;32591;48.102;11.772;2022-11-11T02:17:26;6.03;;;3.70;;
46116;SDS011;32591;48.102;11.772;2022-11-11T02:19:57;5.47;;;2.90;;
46116;SDS011;32591;48.102;11.772;2022-11-11T02:22:28;4.28;;;2.75;;
46116;SDS011;32591;48.102;11.772;2022-11-11T02:25:05;7.32;;;3.55;;
46116;SDS011;32591;48.102;11.772;2022-11-11T02:27:37;5.53;;;2.30;;
46116;SDS011;32591;48.102;11.772;2022-11-11T02:30:08;4.00;;;2.50;;
46116;SDS011;32591;48.102;11.772;2022-11-11T02:32:40;4.82;;;2.72;;
46116;SDS011;32591;48.102;11.772;2022-11-11T02:35:12;5.60;;;2.70;;
46116;SDS011;32591;48.102;11.772;2022-11-11T02:37:43;5.13;;;2.60;;
46116;SDS011;32591;48.102;11.772;2022-11-11T02:40:17;5.35;;;2.75;;
46116;SDS011;32591;48.102;11.772;2022-11-11T02:42:48;7.25;;;3.53;;
46116;SDS011;32591;48.102;11.772;2022-11-11T02:45:14;4.20;;;2.83;;
46116;SDS011;32591;48.102;11.772;2022-11-11T02:47:42;5.07;;;3.00;;
46116;SDS011;32591;48.102;11.772;2022-11-11T02:52:35;6.15;;;3.17;;
46116;SDS011;32591;48.102;11.772;2022-11-11T02:57:31;5.03;;;3.45;;
46116;SDS011;32591;48.102;11.772;2022-11-11T02:59:59;5.18;;;2.50;;
46116;SDS011;32591;48.102;11.772;2022-11-11T03:02:26;5.88;;;2.95;;
46116;SDS011;32591;48.102;11.772;2022-11-11T03:04:54;6.38;;;3.30;;
46116;SDS011;32591;48.102;11.772;2022-11-11T03:07:23;4.85;;;2.88;;
46116;SDS011;32591;48.102;11.772;2022-11-11T03:09:50;4.38;;;2.88;;
46116;SDS011;32591;48.102;11.772;2022-11-11T03:14:45;3.72;;;2.55;;
46116;SDS011;32591;48.102;11.772;2022-11-11T03:17:12;4.68;;;3.55;;
46116;SDS011;32591;48.102;11.772;2022-11-11T03:19:57;4.43;;;3.20;;
46116;SDS011;32591;48.102;11.772;2022-11-11T03:22:38;3.15;;;2.65;;
46116;SDS011;32591;48.102;11.772;2022-11-11T03:25:05;10.25;;;3.58;;
46116;SDS011;32591;48.102;11.772;2022-11-11T03:27:50;5.75;;;2.92;;
46116;SDS011;32591;48.102;11.772;2022-11-11T03:32:46;4.78;;;2.88;;
46116;SDS011;32591;48.102;11.772;2022-11-11T03:35:13;4.32;;;2.83;;
46116;SDS011;32591;48.102;11.772;2022-11-11T03:37:40;5.43;;;3.00;;
46116;SDS011;32591;48.102;11.772;2022-11-11T03:40:25;3.25;;;2.33;;
46116;SDS011;32591;48.102;11.772;2022-11-11T03:42:52;2.80;;;2.30;;
46116;SDS011;32591;48.102;11.772;2022-11-11T03:47:47;5.40;;;2.80;;
46116;SDS011;32591;48.102;11.772;2022-11-11T03:52:41;4.65;;;2.25;;
46116;SDS011;32591;48.102;11.772;2022-11-11T03:55:08;4.55;;;2.83;;
46116;SDS011;32591;48.102;11.772;2022-11-11T03:57:38;4.70;;;2.00;;
46116;SDS011;32591;48.102;11.772;2022-11-11T04:00:07;2.88;;;2.00;;
46116;SDS011;32591;48.102;11.772;2022-11-11T04:02:37;3.90;;;2.13;;
46116;SDS011;32591;48.102;11.772;2022-11-11T04:05:21;3.65;;;2.78;;
46116;SDS011;32591;48.102;11.772;2022-11-11T04:08:08;5.32;;;2.65;;
46116;SDS011;32591;48.102;11.772;2022-11-11T04:10:55;3.75;;;2.42;;
46116;SDS011;32591;48.102;11.772;2022-11-11T04:13:23;4.00;;;2.63;;
46116;SDS011;32591;48.102;11.772;2022-11-11T04:16:08;3.85;;;2.30;;
46116;SDS011;32591;48.102;11.772;2022-11-11T04:18:36;3.85;;;2.25;;
46116;SDS011;32591;48.102;11.772;2022-11-11T04:21:21;4.10;;;2.25;;
46116;SDS011;32591;48.102;11.772;2022-11-11T04:24:07;4.85;;;2.67;;
46116;SDS011;32591;48.102;11.772;2022-11-11T04:26:53;3.47;;;2.38;;
46116;SDS011;32591;48.102;11.772;2022-11-11T04:29:23;3.75;;;2.30;;
46116;SDS011;32591;48.102;11.772;2022-11-11T04:31:58;3.58;;;2.40;;
46116;SDS011;32591;48.102;11.772;2022-11-11T04:34:46;3.17;;;2.13;;
46116;SDS011;32591;48.102;11.772;2022-11-11T04:37:15;4.78;;;2.95;;
46116;SDS011;32591;48.102;11.772;2022-11-11T04:39:43;5.05;;;3.15;;
46116;SDS011;32591;48.102;11.772;2022-11-11T04:42:28;4.70;;;2.95;;
46116;SDS011;32591;48.102;11.772;2022-11-11T04:44:56;4.68;;;2.90;;
46116;SDS011;32591;48.102;11.772;2022-11-11T04:47:51;3.65;;;2.42;;
46116;SDS011;32591;48.102;11.772;2022-11-11T04:50:25;4.53;;;2.42;;
46116;SDS011;32591;48.102;11.772;2022-11-11T04:52:53;4.90;;;2.72;;
46116;SDS011;32591;48.102;11.772;2022-11-11T04:55:21;4.70;;;2.88;;
46116;SDS011;32591;48.102;11.772;2022-11-11T04:58:06;4.80;;;2.60;;
46116;SDS011;32591;48.102;11.772;2022-11-11T05:00:33;5.07;;;2.97;;
46116;SDS011;32591;48.102;11.772;2022-11-11T05:03:01;4.88;;;2.75;;
46116;SDS011;32591;48.102;11.772;2022-11-11T05:05:45;4.63;;;2.67;;
46116;SDS011;32591;48.102;11.772;2022-11-11T05:08:32;3.80;;;2.45;;
46116;SDS011;32591;48.102;11.772;2022-11-11T05:11:18;3.58;;;2.67;;
46116;SDS011;32591;48.102;11.772;2022-11-11T05:13:45;3.33;;;2.35;;
46116;SDS011;32591;48.102;11.772;2022-11-11T05:16:30;4.20;;;2.50;;
46116;SDS011;32591;48.102;11.772;2022-11-11T05:19:21;4.90;;;2.70;;
46116;SDS011;32591;48.102;11.772;2022-11-11T05:22:10;5.85;;;3.38;;
46116;SDS011;32591;48.102;11.772;2022-11-11T05:24:42;5.67;;;3.53;;
46116;SDS011;32591;48.102;11.772;2022-11-11T05:27:34;5.50;;;3.40;;
46116;SDS011;32591;48.102;11.772;2022-11-11T05:30:02;4.38;;;2.60;;
46116;SDS011;32591;48.102;11.772;2022-11-11T05:32:31;4.88;;;2.42;;
46116;SDS011;32591;48.102;11.772;2022-11-11T05:34:58;3.85;;;2.50;;
46116;SDS011;32591;48.102;11.772;2022-11-11T05:39:53;4.80;;;3.05;;
46116;SDS011;32591;48.102;11.772;2022-11-11T05:44:47;4.18;;;3.08;;
46116;SDS011;32591;48.102;11.772;2022-11-11T05:47:14;5.72;;;3.30;;
46116;SDS011;32591;48.102;11.772;2022-11-11T05:49:42;5.15;;;3.30;;
46116;SDS011;32591;48.102;11.772;2022-11-11T05:52:09;3.17;;;2.47;;
46116;SDS011;32591;48.102;11.772;2022-11-11T05:54:39;3.97;;;2.65;;
46116;SDS011;32591;48.102;11.772;2022-11-11T05:57:06;3.90;;;2.63;;
46116;SDS011;32591;48.102;11.772;2022-11-11T05:59:33;3.63;;;2.42;;
46116;SDS011;32591;48.102;11.772;2022-11-11T06:04:27;7.95;;;2.55;;
46116;SDS011;32591;48.102;11.772;2022-11-11T06:09:21;6.68;;;2.80;;
46116;SDS011;32591;48.102;11.772;2022-11-11T06:16:43;4.20;;;2.88;;
46116;SDS011;32591;48.102;11.772;2022-11-11T06:21:36;7.07;;;4.35;;
46116;SDS011;32591;48.102;11.772;2022-11-11T06:24:17;15.15;;;6.53;;
46116;SDS011;32591;48.102;11.772;2022-11-11T06:29:12;10.18;;;5.95;;
46116;SDS011;32591;48.102;11.772;2022-11-11T06:31:39;7.35;;;4.80;;
46116;SDS011;32591;48.102;11.772;2022-11-11T06:34:07;9.43;;;5.65;;
46116;SDS011;32591;48.102;11.772;2022-11-11T06:39:00;8.38;;;5.50;;
46116;SDS011;32591;48.102;11.772;2022-11-11T06:43:54;9.82;;;5.57;;
46116;SDS011;32591;48.102;11.772;2022-11-11T06:46:23;7.88;;;5.40;;
46116;SDS011;32591;48.102;11.772;2022-11-11T06:48:51;7.47;;;5.18;;
46116;SDS011;32591;48.102;11.772;2022-11-11T06:51:18;9.20;;;6.80;;
46116;SDS011;32591;48.102;11.772;2022-11-11T06:53:45;7.68;;;5.88;;
46116;SDS011;32591;48.102;11.772;2022-11-11T06:58:39;7.75;;;4.88;;
46116;SDS011;32591;48.102;11.772;2022-11-11T07:01:07;7.28;;;4.47;;
46116;SDS011;32591;48.102;11.772;2022-11-11T07:03:36;11.23;;;6.28;;
46116;SDS011;32591;48.102;11.772;2022-11-11T07:06:04;14.32;;;8.20;;
46116;SDS011;32591;48.102;11.772;2022-11-11T07:08:31;7.68;;;4.95;;
46116;SDS011;32591;48.102;11.772;2022-11-11T07:10:59;8.02;;;4.97;;
46116;SDS011;32591;48.102;11.772;2022-11-11T07:13:26;10.40;;;4.32;;
46116;SDS011;32591;48.102;11.772;2022-11-11T07:18:20;6.72;;;4.28;;
46116;SDS011;32591;48.102;11.772;2022-11-11T07:20:48;7.30;;;4.45;;
46116;SDS011;32591;48.102;11.772;2022-11-11T07:23:15;6.95;;;4.97;;
46116;SDS011;32591;48.102;11.772;2022-11-11T07:25:42;10.35;;;5.07;;
46116;SDS011;32591;48.102;11.772;2022-11-11T07:28:10;10.73;;;5.30;;
46116;SDS011;32591;48.102;11.772;2022-11-11T07:30:38;6.85;;;4.78;;
46116;SDS011;32591;48.102;11.772;2022-11-11T07:33:05;11.52;;;5.22;;
46116;SDS011;32591;48.102;11.772;2022-11-11T07:38:00;9.02;;;5.50;;
46116;SDS011;32591;48.102;11.772;2022-11-11T07:40:27;8.65;;;5.57;;
46116;SDS011;32591;48.102;11.772;2022-11-11T07:45:21;9.70;;;5.30;;
46116;SDS011;32591;48.102;11.772;2022-11-11T07:50:15;8.00;;;5.28;;
46116;SDS011;32591;48.102;11.772;2022-11-11T07:52:46;9.63;;;5.10;;
46116;SDS011;32591;48.102;11.772;2022-11-11T07:55:15;10.23;;;5.47;;
46116;SDS011;32591;48.102;11.772;2022-11-11T07:57:43;7.88;;;5.25;;
46116;SDS011;32591;48.102;11.772;2022-11-11T08:00:10;6.88;;;5.05;;
46116;SDS011;32591;48.102;11.772;2022-11-11T08:02:38;5.07;;;4.07;;
46116;SDS011;32591;48.102;11.772;2022-11-11T08:05:06;7.55;;;4.45;;
46116;SDS011;32591;48.102;11.772;2022-11-11T08:07:34;8.73;;;4.65;;
46116;SDS011;32591;48.102;11.772;2022-11-11T08:10:02;8.13;;;4.85;;
46116;SDS011;32591;48.102;11.772;2022-11-11T08:12:30;7.57;;;4.18;;
46116;SDS011;32591;48.102;11.772;2022-11-11T08:15:15;6.18;;;4.00;;
46116;SDS011;32591;48.102;11.772;2022-11-11T08:17:42;8.65;;;4.70;;
46116;SDS011;32591;48.102;11.772;2022-11-11T08:20:09;9.00;;;5.05;;
46116;SDS011;32591;48.102;11.772;2022-11-11T08:22:37;9.55;;;4.82;;
46116;SDS011;32591;48.102;11.772;2022-11-11T08:25:06;7.13;;;4.65;;
46116;SDS011;32591;48.102;11.772;2022-11-11T08:27:36;10.65;;;5.00;;
46116;SDS011;32591;48.102;11.772;2022-11-11T08:30:04;5.05;;;3.63;;
46116;SDS011;32591;48.102;11.772;2022-11-11T08:32:34;7.95;;;4.30;;
46116;SDS011;32591;48.102;11.772;2022-11-11T08:35:01;7.82;;;4.55;;
46116;SDS011;32591;48.102;11.772;2022-11-11T08:37:28;12.43;;;5.90;;
46116;SDS011;32591;48.102;11.772;2022-11-11T08:39:55;10.60;;;4.78;;
46116;SDS011;32591;48.102;11.772;2022-11-11T08:42:22;9.30;;;4.25;;
46116;SDS011;32591;48.102;11.772;2022-11-11T08:44:50;4.20;;;2.70;;
46116;SDS011;32591;48.102;11.772;2022-11-11T08:47:17;3.55;;;2.28;;
46116;SDS011;32591;48.102;11.772;2022-11-11T08:49:46;4.22;;;2.80;;
46116;SDS011;32591;48.102;11.772;2022-11-11T08:52:15;4.30;;;2.70;;
46116;SDS011;32591;48.102;11.772;2022-11-11T08:54:42;6.68;;;3.85;;
46116;SDS011;32591;48.102;11.772;2022-11-11T08:57:09;4.38;;;2.80;;
46116;SDS011;32591;48.102;11.772;2022-11-11T08:59:36;4.55;;;2.72;;
46116;SDS011;32591;48.102;11.772;2022-11-11T09:02:05;3.80;;;2.88;;
46116;SDS011;32591;48.102;11.772;2022-11-11T09:04:34;4.03;;;2.60;;
46116;SDS011;32591;48.102;11.772;2022-11-11T09:07:01;3.97;;;2.72;;
46116;SDS011;32591;48.102;11.772;2022-11-11T09:09:28;4.07;;;2.95;;
46116;SDS011;32591;48.102;11.772;2022-11-11T09:11:55;5.97;;;3.20;;
46116;SDS011;32591;48.102;11.772;2022-11-11T09:14:22;3.85;;;2.97;;
46116;SDS011;32591;48.102;11.772;2022-11-11T09:16:49;4.63;;;3.33;;
46116;SDS011;32591;48.102;11.772;2022-11-11T09:19:18;6.30;;;2.88;;
46116;SDS011;32591;48.102;11.772;2022-11-11T09:21:45;4.80;;;3.10;;
46116;SDS011;32591;48.102;11.772;2022-11-11T09:24:12;3.38;;;2.20;;
46116;SDS011;32591;48.102;11.772;2022-11-11T09:26:39;4.90;;;2.20;;
46116;SDS011;32591;48.102;11.772;2022-11-11T09:29:06;3.15;;;2.30;;
46116;SDS011;32591;48.102;11.772;2022-11-11T09:31:33;2.63;;;1.90;;
46116;SDS011;32591;48.102;11.772;2022-11-11T09:34:00;2.58;;;1.80;;
46116;SDS011;32591;48.102;11.772;2022-11-11T09:36:29;3.97;;;1.90;;
46116;SDS011;32591;48.102;11.772;2022-11-11T09:38:55;2.58;;;1.65;;
46116;SDS011;32591;48.102;11.772;2022-11-11T09:41:23;2.50;;;1.67;;
46116;SDS011;32591;48.102;11.772;2022-11-11T09:44:02;1.88;;;1.50;;
46116;SDS011;32591;48.102;11.772;2022-11-11T09:46:32;1.92;;;1.50;;
46116;SDS011;32591;48.102;11.772;2022-11-11T09:49:07;1.60;;;1.17;;
46116;SDS011;32591;48.102;11.772;2022-11-11T09:52:00;3.05;;;1.95;;
46116;SDS011;32591;48.102;11.772;2022-11-11T09:54:36;2.17;;;1.25;;
46116;SDS011;32591;48.102;11.772;2022-11-11T09:57:10;2.08;;;1.23;;
46116;SDS011;32591;48.102;11.772;2022-11-11T09:59:44;2.08;;;1.55;;
46116;SDS011;32591;48.102;11.772;2022-11-11T10:02:18;3.17;;;1.23;;
46116;SDS011;32591;48.102;11.772;2022-11-11T10:04:55;2.63;;;1.38;;
46116;SDS011;32591;48.102;11.772;2022-11-11T10:07:33;1.52;;;1.10;;
46116;SDS011;32591;48.102;11.772;2022-11-11T10:10:05;4.78;;;1.73;;
46116;SDS011;32591;48.102;11.772;2022-11-11T10:12:41;2.08;;;1.23;;
46116;SDS011;32591;48.102;11.772;2022-11-11T10:15:13;2.25;;;1.08;;
46116;SDS011;32591;48.102;11.772;2022-11-11T10:17:44;1.48;;;0.98;;
46116;SDS011;32591;48.102;11.772;2022-11-11T10:20:22;2.15;;;1.10;;
46116;SDS011;32591;48.102;11.772;2022-11-11T10:22:56;1.77;;;1.20;;
46116;SDS011;32591;48.102;11.772;2022-11-11T10:25:28;1.40;;;1.02;;
46116;SDS011;32591;48.102;11.772;2022-11-11T10:27:57;1.63;;;1.20;;
46116;SDS011;32591;48.102;11.772;2022-11-11T10:30:28;1.38;;;1.27;;
46116;SDS011;32591;48.102;11.772;2022-11-11T10:32:58;3.05;;;1.30;;
46116;SDS011;32591;48.102;11.772;2022-11-11T10:35:28;1.70;;;1.10;;
46116;SDS011;32591;48.102;11.772;2022-11-11T10:38:02;2.30;;;1.58;;
46116;SDS011;32591;48.102;11.772;2022-11-11T10:40:47;1.35;;;0.93;;
46116;SDS011;32591;48.102;11.772;2022-11-11T10:43:20;2.58;;;1.17;;
46116;SDS011;32591;48.102;11.772;2022-11-11T10:45:50;1.60;;;1.15;;
46116;SDS011;32591;48.102;11.772;2022-11-11T10:48:28;1.77;;;1.00;;
46116;SDS011;32591;48.102;11.772;2022-11-11T10:51:06;1.55;;;1.10;;
46116;SDS011;32591;48.102;11.772;2022-11-11T10:53:37;2.47;;;1.10;;
46116;SDS011;32591;48.102;11.772;2022-11-11T10:56:13;1.63;;;1.00;;
46116;SDS011;32591;48.102;11.772;2022-11-11T10:58:47;2.92;;;1.35;;
46116;SDS011;32591;48.102;11.772;2022-11-11T11:01:21;2.40;;;1.10;;
46116;SDS011;32591;48.102;11.772;2022-11-11T11:03:57;2.42;;;1.40;;
46116;SDS011;32591;48.102;11.772;2022-11-11T11:06:30;1.45;;;1.00;;
46116;SDS011;32591;48.102;11.772;2022-11-11T11:09:18;1.55;;;0.90;;
46116;SDS011;32591;48.102;11.772;2022-11-11T11:11:51;1.60;;;1.20;;
46116;SDS011;32591;48.102;11.772;2022-11-11T11:14:27;1.92;;;1.23;;
46116;SDS011;32591;48.102;11.772;2022-11-11T11:16:59;8.10;;;1.60;;
46116;SDS011;32591;48.102;11.772;2022-11-11T11:19:34;2.65;;;1.58;;
46116;SDS011;32591;48.102;11.772;2022-11-11T11:22:01;2.40;;;1.25;;
46116;SDS011;32591;48.102;11.772;2022-11-11T11:24:31;1.83;;;1.17;;
46116;SDS011;32591;48.102;11.772;2022-11-11T11:27:01;2.95;;;1.33;;
46116;SDS011;32591;48.102;11.772;2022-11-11T11:29:31;3.40;;;1.52;;
46116;SDS011;32591;48.102;11.772;2022-11-11T11:32:10;1.90;;;1.23;;
46116;SDS011;32591;48.102;11.772;2022-11-11T11:34:44;3.15;;;1.33;;
46116;SDS011;32591;48.102;11.772;2022-11-11T11:37:14;2.50;;;1.02;;
46116;SDS011;32591;48.102;11.772;2022-11-11T11:39:45;3.22;;;1.20;;
46116;SDS011;32591;48.102;11.772;2022-11-11T11:42:26;1.23;;;1.10;;
46116;SDS011;32591;48.102;11.772;2022-11-11T11:44:55;1.65;;;1.10;;
46116;SDS011;32591;48.102;11.772;2022-11-11T11:47:34;1.90;;;1.20;;
46116;SDS011;32591;48.102;11.772;2022-11-11T11:50:16;0.93;;;0.93;;
46116;SDS011;32591;48.102;11.772;2022-11-11T11:53:00;2.50;;;1.15;;
46116;SDS011;32591;48.102;11.772;2022-11-11T11:56:10;2.90;;;1.23;;
46116;SDS011;32591;48.102;11.772;2022-11-11T11:58:54;2.70;;;1.55;;
46116;SDS011;32591;48.102;11.772;2022-11-11T12:01:28;1.63;;;1.30;;
46116;SDS011;32591;48.102;11.772;2022-11-11T12:04:08;2.67;;;1.13;;
46116;SDS011;32591;48.102;11.772;2022-11-11T12:07:07;3.15;;;1.65;;
46116;SDS011;32591;48.102;11.772;2022-11-11T12:09:47;2.45;;;1.40;;
46116;SDS011;32591;48.102;11.772;2022-11-11T12:12:28;3.22;;;1.30;;
46116;SDS011;32591;48.102;11.772;2022-11-11T12:15:29;2.90;;;2.10;;
46116;SDS011;32591;48.102;11.772;2022-11-11T12:18:08;2.55;;;1.52;;
46116;SDS011;32591;48.102;11.772;2022-11-11T12:20:50;2.47;;;1.60;;
46116;SDS011;32591;48.102;11.772;2022-11-11T12:26:20;2.63;;;1.50;;
46116;SDS011;32591;48.102;11.772;2022-11-11T12:29:04;2.75;;;1.27;;
46116;SDS011;32591;48.102;11.772;2022-11-11T12:31:57;2.40;;;1.67;;
46116;SDS011;32591;48.102;11.772;2022-11-11T12:34:43;2.90;;;1.70;;
46116;SDS011;32591;48.102;11.772;2022-11-11T12:37:31;1.92;;;1.25;;
46116;SDS011;32591;48.102;11.772;2022-11-11T12:40:12;2.50;;;1.45;;
46116;SDS011;32591;48.102;11.772;2022-11-11T12:42:55;1.98;;;1.50;;
46116;SDS011;32591;48.102;11.772;2022-11-11T12:45:37;3.97;;;1.70;;
46116;SDS011;32591;48.102;11.772;2022-11-11T12:48:18;2.13;;;1.60;;
46116;SDS011;32591;48.102;11.772;2022-11-11T12:51:03;3.17;;;1.65;;
46116;SDS011;32591;48.102;11.772;2022-11-11T12:53:39;3.20;;;1.70;;
46116;SDS011;32591;48.102;11.772;2022-11-11T12:56:15;1.45;;;1.23;;
46116;SDS011;32591;48.102;11.772;2022-11-11T12:58:52;2.05;;;1.30;;
46116;SDS011;32591;48.102;11.772;2022-11-11T13:01:31;2.75;;;1.80;;
46116;SDS011;32591;48.102;11.772;2022-11-11T13:04:23;3.15;;;1.42;;
46116;SDS011;32591;48.102;11.772;2022-11-11T13:07:05;2.05;;;1.30;;
46116;SDS011;32591;48.102;11.772;2022-11-11T13:12:52;1.92;;;1.40;;
46116;SDS011;32591;48.102;11.772;2022-11-11T13:15:28;2.78;;;1.58;;
46116;SDS011;32591;48.102;11.772;2022-11-11T13:17:59;2.20;;;1.58;;
46116;SDS011;32591;48.102;11.772;2022-11-11T13:20:34;3.70;;;1.55;;
46116;SDS011;32591;48.102;11.772;2022-11-11T13:23:10;3.03;;;1.73;;
46116;SDS011;32591;48.102;11.772;2022-11-11T13:25:39;3.58;;;1.70;;
46116;SDS011;32591;48.102;11.772;2022-11-11T13:28:13;4.15;;;2.20;;
46116;SDS011;32591;48.102;11.772;2022-11-11T13:30:48;11.00;;;2.70;;
46116;SDS011;32591;48.102;11.772;2022-11-11T13:33:34;2.03;;;1.30;;
46116;SDS011;32591;48.102;11.772;2022-11-11T13:36:06;2.75;;;1.92;;
46116;SDS011;32591;48.102;11.772;2022-11-11T13:38:35;2.28;;;1.70;;
46116;SDS011;32591;48.102;11.772;2022-11-11T13:41:10;2.45;;;1.80;;
46116;SDS011;32591;48.102;11.772;2022-11-11T13:43:46;3.60;;;1.75;;
46116;SDS011;32591;48.102;11.772;2022-11-11T13:46:27;2.25;;;1.67;;
46116;SDS011;32591;48.102;11.772;2022-11-11T13:49:02;4.57;;;1.65;;
46116;SDS011;32591;48.102;11.772;2022-11-11T13:51:33;4.18;;;2.35;;
46116;SDS011;32591;48.102;11.772;2022-11-11T13:54:05;4.28;;;2.42;;
46116;SDS011;32591;48.102;11.772;2022-11-11T13:56:47;4.70;;;2.25;;
46116;SDS011;32591;48.102;11.772;2022-11-11T13:59:17;4.60;;;2.50;;
46116;SDS011;32591;48.102;11.772;2022-11-11T14:01:48;4.60;;;3.22;;
46116;SDS011;32591;48.102;11.772;2022-11-11T14:07:47;4.97;;;3.15;;
46116;SDS011;32591;48.102;11.772;2022-11-11T14:16:08;9.38;;;4.30;;
46116;SDS011;32591;48.102;11.772;2022-11-11T14:19:28;5.15;;;3.72;;
46116;SDS011;32591;48.102;11.772;2022-11-11T14:21:57;4.72;;;3.65;;
46116;SDS011;32591;48.102;11.772;2022-11-11T14:24:29;4.70;;;3.33;;
46116;SDS011;32591;48.102;11.772;2022-11-11T14:27:01;7.68;;;3.88;;
46116;SDS011;32591;48.102;11.772;2022-11-11T14:29:30;5.82;;;4.03;;
46116;SDS011;32591;48.102;11.772;2022-11-11T14:32:09;4.97;;;3.63;;
46116;SDS011;32591;48.102;11.772;2022-11-11T14:35:14;6.28;;;4.25;;
46116;SDS011;32591;48.102;11.772;2022-11-11T14:37:54;6.38;;;4.30;;
46116;SDS011;32591;48.102;11.772;2022-11-11T14:40:32;6.40;;;4.07;;
46116;SDS011;32591;48.102;11.772;2022-11-11T14:42:59;5.65;;;3.85;;
46116;SDS011;32591;48.102;11.772;2022-11-11T14:46:04;6.90;;;5.03;;
46116;SDS011;32591;48.102;11.772;2022-11-11T14:48:53;7.07;;;4.30;;
46116;SDS011;32591;48.102;11.772;2022-11-11T14:54:27;7.07;;;4.88;;
46116;SDS011;32591;48.102;11.772;2022-11-11T14:57:06;5.40;;;4.10;;
46116;SDS011;32591;48.102;11.772;2022-11-11T14:59:46;8.43;;;4.80;;
46116;SDS011;32591;48.102;11.772;2022-11-11T15:02:19;6.63;;;4.70;;
46116;SDS011;32591;48.102;11.772;2022-11-11T15:04:56;8.23;;;5.10;;
46116;SDS011;32591;48.102;11.772;2022-11-11T15:07:27;7.30;;;4.43;;
46116;SDS011;32591;48.102;11.772;2022-11-11T15:10:19;7.22;;;5.13;;
46116;SDS011;32591;48.102;11.772;2022-11-11T15:13:04;8.63;;;5.22;;
46116;SDS011;32591;48.102;11.772;2022-11-11T15:15:58;9.50;;;6.15;;
46116;SDS011;32591;48.102;11.772;2022-11-11T15:21:31;7.18;;;4.65;;
46116;SDS011;32591;48.102;11.772;2022-11-11T15:24:04;5.15;;;4.55;;
46116;SDS011;32591;48.102;11.772;2022-11-11T15:26:45;7.03;;;5.10;;
46116;SDS011;32591;48.102;11.772;2022-11-11T15:32:21;6.95;;;5.38;;
46116;SDS011;32591;48.102;11.772;2022-11-11T15:35:03;6.75;;;5.03;;
46116;SDS011;32591;48.102;11.772;2022-11-11T15:37:51;8.23;;;4.57;;
46116;SDS011;32591;48.102;11.772;2022-11-11T15:40:22;6.22;;;4.88;;
46116;SDS011;32591;48.102;11.772;2022-11-11T15:42:51;8.48;;;5.10;;
46116;SDS011;32591;48.102;11.772;2022-11-11T15:45:20;6.75;;;5.25;;
46116;SDS011;32591;48.102;11.772;2022-11-11T15:47:51;6.82;;;5.30;;
46116;SDS011;32591;48.102;11.772;2022-11-11T15:50:28;6.68;;;5.25;;
46116;SDS011;32591;48.102;11.772;2022-11-11T15:52:59;7.32;;;5.00;;
46116;SDS011;32591;48.102;11.772;2022-11-11T15:55:27;7.22;;;5.50;;
46116;SDS011;32591;48.102;11.772;2022-11-11T15:58:06;8.00;;;5.22;;
46116;SDS011;32591;48.102;11.772;2022-11-11T16:00:35;8.55;;;5.80;;
46116;SDS011;32591;48.102;11.772;2022-11-11T16:03:05;7.65;;;5.05;;
46116;SDS011;32591;48.102;11.772;2022-11-11T16:05:41;7.95;;;5.60;;
46116;SDS011;32591;48.102;11.772;2022-11-11T16:08:09;10.02;;;6.95;;
46116;SDS011;32591;48.102;11.772;2022-11-11T16:10:45;9.65;;;6.03;;
46116;SDS011;32591;48.102;11.772;2022-11-11T16:13:19;10.02;;;6.15;;
46116;SDS011;32591;48.102;11.772;2022-11-11T16:15:48;9.15;;;6.07;;
46116;SDS011;32591;48.102;11.772;2022-11-11T16:18:21;10.13;;;6.03;;
46116;SDS011;32591;48.102;11.772;2022-11-11T16:20:51;9.75;;;6.20;;
46116;SDS011;32591;48.102;11.772;2022-11-11T16:23:23;7.82;;;5.68;;
46116;SDS011;32591;48.102;11.772;2022-11-11T16:25:51;8.85;;;6.45;;
46116;SDS011;32591;48.102;11.772;2022-11-11T16:28:19;8.98;;;6.80;;